createdAt,value
2017-01-12T00:04:39.663Z,1000.69
2017-01-12T00:09:36.781Z,1000.75
2017-01-12T00:14:34.334Z,1000.68
2017-01-12T00:19:30.458Z,1000.65
2017-01-12T00:24:26.957Z,1000.53
2017-01-12T00:29:23.502Z,1000.71
2017-01-12T00:34:19.759Z,1000.71
2017-01-12T00:39:16.456Z,1000.75
2017-01-12T00:44:12.950Z,1000.85
2017-01-12T00:49:09.076Z,1000.89
2017-01-12T00:54:05.714Z,1000.91
2017-01-12T00:59:02.133Z,1001.00
2017-01-12T01:03:58.510Z,1000.99
2017-01-12T01:08:55.168Z,1000.98
2017-01-12T01:13:51.723Z,1001.05
2017-01-12T01:18:47.900Z,1001.11
2017-01-12T01:23:44.331Z,1001.19
2017-01-12T01:28:40.622Z,1001.09
2017-01-12T01:33:37.813Z,1001.03
2017-01-12T01:38:34.129Z,1001.25
2017-01-12T01:43:30.742Z,1001.28
2017-01-12T01:48:27.192Z,1001.28
2017-01-12T01:53:24.127Z,1001.18
2017-01-12T01:58:20.845Z,1001.36
2017-01-12T02:03:17.390Z,1001.35
2017-01-12T02:08:13.616Z,1001.30
2017-01-12T02:13:10.050Z,1001.33
2017-01-12T02:18:07.384Z,1001.43
2017-01-12T02:23:04.083Z,1001.37
2017-01-12T02:28:00.054Z,1001.37
2017-01-12T02:32:56.820Z,1001.45
2017-01-12T02:37:53.053Z,1001.36
2017-01-12T02:42:49.355Z,1001.43
2017-01-12T02:47:46.558Z,1001.40
2017-01-12T02:52:43.011Z,1001.33
2017-01-12T02:57:39.423Z,1001.52
2017-01-12T03:02:36.410Z,1001.50
2017-01-12T03:07:33.064Z,1001.33
2017-01-12T03:12:30.298Z,1001.36
2017-01-12T03:17:26.974Z,1001.44
2017-01-12T03:22:23.189Z,1001.32
2017-01-12T03:27:19.908Z,1001.45
2017-01-12T03:32:16.304Z,1001.55
2017-01-12T03:37:12.641Z,1001.49
2017-01-12T03:42:08.951Z,1001.52
2017-01-12T03:47:05.444Z,1001.56
2017-01-12T03:52:02.255Z,1001.59
2017-01-12T03:56:58.750Z,1001.62
2017-01-12T04:01:55.298Z,1001.65
2017-01-12T04:06:51.733Z,1001.61
2017-01-12T04:11:48.799Z,1001.68
2017-01-12T04:16:45.053Z,1001.75
2017-01-12T04:21:41.392Z,1001.64
2017-01-12T04:26:38.037Z,1001.58
2017-01-12T04:31:34.757Z,1001.50
2017-01-12T04:36:31.360Z,1001.54
2017-01-12T04:41:27.345Z,1001.62
2017-01-12T04:46:23.936Z,1001.55
2017-01-12T04:51:20.372Z,1001.54
2017-01-12T04:56:16.763Z,1001.48
2017-01-12T05:01:13.802Z,1001.43
2017-01-12T05:06:09.957Z,1001.41
2017-01-12T05:11:06.317Z,1001.46
2017-01-12T05:16:02.895Z,1001.44
2017-01-12T05:20:59.638Z,1001.50
2017-01-12T05:25:56.185Z,1001.57
2017-01-12T05:30:54.428Z,1001.62
2017-01-12T05:35:50.668Z,1001.60
2017-01-12T05:40:47.887Z,1001.55
2017-01-12T05:45:44.254Z,1001.54
2017-01-12T05:50:40.895Z,1001.46
2017-01-12T05:55:37.334Z,1001.51
2017-01-12T06:00:33.943Z,1001.53
2017-01-12T06:05:30.343Z,1001.46
2017-01-12T06:10:27.010Z,1001.50
2017-01-12T06:15:23.494Z,1001.47
2017-01-12T06:20:20.091Z,1001.48
2017-01-12T06:25:16.622Z,1001.53
2017-01-12T06:30:13.828Z,1001.48
2017-01-12T06:35:10.525Z,1001.36
2017-01-12T06:40:06.864Z,1001.35
2017-01-12T06:45:03.275Z,1001.41
2017-01-12T06:50:00.694Z,1001.49
2017-01-12T06:54:56.877Z,1001.50
2017-01-12T06:59:53.150Z,1001.57
2017-01-12T07:04:49.544Z,1001.52
2017-01-12T07:09:45.872Z,1001.45
2017-01-12T07:14:42.149Z,1001.55
2017-01-12T07:19:38.813Z,1001.46
2017-01-12T07:24:35.164Z,1001.41
2017-01-12T07:29:31.565Z,1001.44
2017-01-12T07:34:27.928Z,1001.38
2017-01-12T07:39:24.291Z,1001.49
2017-01-12T07:44:21.038Z,1001.50
2017-01-12T07:49:17.870Z,1001.37
2017-01-12T07:54:14.481Z,1001.25
2017-01-12T07:59:10.769Z,1001.30
2017-01-12T08:04:07.046Z,1001.37
2017-01-12T08:09:03.048Z,1001.42
2017-01-12T08:13:59.597Z,1001.48
2017-01-12T08:18:56.527Z,1001.74
2017-01-12T08:23:53.241Z,1001.74
2017-01-12T08:28:49.551Z,1001.73
2017-01-12T08:33:46.143Z,1001.78
2017-01-12T08:38:42.588Z,1001.76
2017-01-12T08:43:39.067Z,1001.86
2017-01-12T08:48:35.491Z,1001.92
2017-01-12T08:53:33.101Z,1001.92
2017-01-12T08:58:29.868Z,1001.89
2017-01-12T09:03:26.390Z,1001.88
2017-01-12T09:08:23.640Z,1001.93
2017-01-12T09:13:19.959Z,1001.85
2017-01-12T09:18:17.419Z,1001.82
2017-01-12T09:23:14.084Z,1001.71
2017-01-12T09:28:10.677Z,1001.74
2017-01-12T09:33:07.528Z,1001.63
2017-01-12T09:38:04.440Z,1001.62
2017-01-12T09:43:01.664Z,1001.60
2017-01-12T09:47:58.344Z,1001.57
2017-01-12T09:52:54.640Z,1001.63
2017-01-12T09:57:51.338Z,1001.49
2017-01-12T10:02:47.841Z,1001.66
2017-01-12T10:07:44.313Z,1001.63
2017-01-12T10:12:40.880Z,1001.67
2017-01-12T10:17:37.342Z,1001.61
2017-01-12T10:22:34.112Z,1001.62
2017-01-12T10:27:30.678Z,1001.48
2017-01-12T10:32:27.037Z,1001.49
2017-01-12T10:37:23.722Z,1001.43
2017-01-12T10:42:20.246Z,1001.25
2017-01-12T10:47:16.750Z,1001.11
2017-01-12T10:52:13.111Z,1001.14
2017-01-12T10:57:09.444Z,1000.98
2017-01-12T11:02:06.415Z,1000.93
2017-01-12T11:07:02.985Z,1000.83
2017-01-12T11:11:59.816Z,1000.80
2017-01-12T11:16:56.823Z,1000.78
2017-01-12T11:21:53.537Z,1000.64
2017-01-12T11:26:50.145Z,1000.59
2017-01-12T11:31:46.675Z,1000.43
2017-01-12T11:36:43.115Z,1000.32
2017-01-12T11:41:39.667Z,1000.44
2017-01-12T11:46:36.053Z,1000.38
2017-01-12T11:51:32.131Z,1000.37
2017-01-12T11:56:28.769Z,1000.11
2017-01-12T12:01:25.909Z,1000.03
2017-01-12T12:06:22.323Z,1000.00
2017-01-12T12:11:19.522Z,999.89
2017-01-12T12:16:16.096Z,999.83
2017-01-12T12:21:12.473Z,999.62
2017-01-12T12:26:09.647Z,999.62
2017-01-12T12:31:06.097Z,999.53
2017-01-12T12:36:02.679Z,999.47
2017-01-12T12:40:59.197Z,999.41
2017-01-12T12:45:55.949Z,999.38
2017-01-12T12:50:52.647Z,999.23
2017-01-12T12:55:49.153Z,999.05
2017-01-12T13:00:45.676Z,998.98
2017-01-12T13:05:42.314Z,998.96
2017-01-12T13:10:38.900Z,998.96
2017-01-12T13:15:35.459Z,998.86
2017-01-12T13:20:31.987Z,998.82
2017-01-12T13:25:28.314Z,998.64
2017-01-12T13:30:24.680Z,998.46
2017-01-12T13:35:22.403Z,998.43
2017-01-12T13:40:18.976Z,998.33
2017-01-12T13:45:15.446Z,998.33
2017-01-12T13:50:12.096Z,998.06
2017-01-12T13:55:08.679Z,998.02
2017-01-12T14:00:04.987Z,997.95
2017-01-12T14:05:01.500Z,997.85
2017-01-12T14:09:58.113Z,997.53
2017-01-12T14:14:54.609Z,997.61
2017-01-12T14:19:51.061Z,997.42
2017-01-12T14:24:47.402Z,997.30
2017-01-12T14:29:43.794Z,997.24
2017-01-12T14:34:40.405Z,997.13
2017-01-12T14:39:37.098Z,997.11
2017-01-12T14:44:33.568Z,996.88
2017-01-12T14:49:30.031Z,996.71
2017-01-12T14:54:26.564Z,996.62
2017-01-12T14:59:22.789Z,996.44
2017-01-12T15:04:18.919Z,996.31
2017-01-12T15:09:15.253Z,996.11
2017-01-12T15:24:04.282Z,995.91
2017-01-12T15:29:00.917Z,995.84
2017-01-12T15:33:57.579Z,995.74
2017-01-12T15:38:53.834Z,995.60
2017-01-12T15:43:51.046Z,995.49
2017-01-12T15:48:47.051Z,995.36
2017-01-12T15:53:43.813Z,995.33
2017-01-12T15:58:40.191Z,995.23
2017-01-12T16:03:37.474Z,995.25
2017-01-12T16:08:34.167Z,995.16
2017-01-12T16:13:31.313Z,995.05
2017-01-12T16:18:28.082Z,994.87
2017-01-12T16:23:24.596Z,994.83
2017-01-12T16:28:20.858Z,994.60
2017-01-12T16:33:17.241Z,994.72
2017-01-12T16:38:13.729Z,994.47
2017-01-12T16:43:10.361Z,994.31
2017-01-12T16:48:06.833Z,994.26
2017-01-12T16:53:04.876Z,994.03
2017-01-12T16:58:01.090Z,993.89
2017-01-12T17:02:57.512Z,993.55
2017-01-12T17:07:56.442Z,993.33
2017-01-12T17:12:52.692Z,993.18
2017-01-12T17:17:51.218Z,993.18
2017-01-12T17:22:46.946Z,992.97
2017-01-12T17:27:43.480Z,992.78
2017-01-12T17:32:39.723Z,992.54
2017-01-12T17:37:36.519Z,992.45
2017-01-12T17:42:33.654Z,992.32
2017-01-12T17:47:29.764Z,992.13
2017-01-12T17:52:26.122Z,991.94
2017-01-12T17:57:22.420Z,991.73
2017-01-12T18:02:18.896Z,991.58
2017-01-12T18:07:15.242Z,991.42
2017-01-12T18:12:11.732Z,991.24
2017-01-12T18:17:08.243Z,991.07
2017-01-12T18:22:04.696Z,990.96
2017-01-12T18:27:01.804Z,990.70
2017-01-12T18:31:59.344Z,990.59
2017-01-12T18:36:55.542Z,990.25
2017-01-12T18:41:54.099Z,990.10
2017-01-12T18:46:50.007Z,989.79
2017-01-12T18:51:46.455Z,989.61
2017-01-12T18:56:43.090Z,989.41
2017-01-12T19:01:39.269Z,989.26
2017-01-12T19:06:35.640Z,989.13
2017-01-12T19:11:31.879Z,988.98
2017-01-12T19:16:28.275Z,988.72
2017-01-12T19:21:25.037Z,988.48
2017-01-12T19:26:21.235Z,988.14
2017-01-12T19:31:17.795Z,988.04
2017-01-12T19:36:14.101Z,987.86
2017-01-12T19:41:10.603Z,987.65
2017-01-12T19:46:07.036Z,987.38
2017-01-12T19:51:05.753Z,987.27
2017-01-12T19:56:01.699Z,987.04
2017-01-12T20:00:58.457Z,986.68
2017-01-12T20:05:54.915Z,986.47
2017-01-12T20:10:51.291Z,986.15
2017-01-12T20:15:47.812Z,985.92
2017-01-12T20:20:44.708Z,985.70
2017-01-12T20:25:41.940Z,985.46
2017-01-12T20:30:38.241Z,985.22
2017-01-12T20:35:34.808Z,985.00
2017-01-12T20:40:30.673Z,984.79
2017-01-12T20:45:27.151Z,984.60
2017-01-12T20:50:23.231Z,984.39
2017-01-12T20:55:19.558Z,984.28
2017-01-12T21:00:15.963Z,983.98
2017-01-12T21:05:12.425Z,983.68
2017-01-12T21:10:09.033Z,983.60
2017-01-12T21:15:05.499Z,983.32
2017-01-12T21:20:02.628Z,983.09
2017-01-12T21:25:01.587Z,982.89
2017-01-12T21:29:57.209Z,982.61
2017-01-12T21:34:53.302Z,982.36
2017-01-12T21:39:49.818Z,982.25
2017-01-12T21:44:46.497Z,981.98
2017-01-12T21:49:42.864Z,981.71
2017-01-12T21:54:39.208Z,981.38
2017-01-12T21:59:38.617Z,981.07
2017-01-12T22:04:34.322Z,980.87
2017-01-12T22:09:30.796Z,980.64
2017-01-12T22:14:27.503Z,980.50
2017-01-12T22:19:23.617Z,980.28
2017-01-12T22:24:20.004Z,980.13
2017-01-12T22:29:16.321Z,979.77
2017-01-12T22:34:13.912Z,979.54
2017-01-12T22:39:10.163Z,979.41
2017-01-12T22:44:06.553Z,979.12
2017-01-12T22:49:03.640Z,978.87
2017-01-12T22:53:59.730Z,978.42
2017-01-12T22:58:56.449Z,978.26
2017-01-12T23:03:53.293Z,977.88
2017-01-12T23:08:49.551Z,977.86
2017-01-12T23:13:46.548Z,977.56
2017-01-12T23:18:42.943Z,977.42
2017-01-12T23:23:39.287Z,977.00
2017-01-12T23:28:36.386Z,976.76
2017-01-12T23:33:32.941Z,976.56
2017-01-12T23:38:30.000Z,976.30
2017-01-12T23:43:26.266Z,976.06
2017-01-12T23:48:22.488Z,975.87
2017-01-12T23:53:18.785Z,975.72
2017-01-12T23:58:15.147Z,975.77
